LIRQ/FLR METAR and TAF weather

Enter ICAO airport designator
Station Type Date Time Source
LIRQ METAR 2022/11/30 16:50 UTC NOAA

LIRQ 301650Z VRB05KT CAVOK 07/01 Q1015


Station Type Date Time Source
LIRQ Decoded METAR 2022/11/30 16:50 UTC NOAA

Firenze / Peretola, Italy (LIRQ) 43-48N 011-12E 38M
Nov 30, 2022 - 11:50 AM EST / 2022.11.30 1650 UTC
Wind: Variable at 6 MPH (5 KT):0
Visibility: greater than 7 mile(s):0
Temperature: 44 F (7 C)
Dew Point: 33 F (1 C)
Relative Humidity: 65%
Pressure (altimeter): 29.97 in. Hg (1015 hPa)
ob: LIRQ 301650Z VRB05KT CAVOK 07/01 Q1015
cycle: 17

Station Type Date Time Source
LIRQ TAF 2022/11/30 12:21 UTC NOAA

TAF LIRQ 301100Z 3012/0112 03012KT 9999 FEW040
BECMG 3015/3017 VRB05KT

Example: see airport list